NVIDIA Current Ratio 2006-2018 | NVDA

Current and historical current ratio for NVIDIA (NVDA) from 2006 to 2018. Current ratio can be defined as a liquidity ratio that measures a company's ability to pay short-term obligations. NVIDIA current ratio for the three months ending July 31, 2018 was 7.41.
NVIDIA Current Ratio Historical Data
Date Current Assets Current Liabilities Current Ratio
2018-07-31 $10.83B $1.46B 7.41
2018-04-30 $9.45B $1.11B 8.54
2018-01-31 $9.26B $1.15B 8.03
2017-10-31 $8.48B $1.03B 8.26
2017-07-31 $8.07B $1.03B 7.82
2017-04-30 $8.12B $0.98B 8.26
2017-01-31 $8.54B $1.79B 4.77
2016-10-31 $8.31B $2.04B 4.07
2016-07-31 $6.16B $2.41B 2.56
2016-04-30 $5.79B $2.38B 2.44
2016-01-31 $6.05B $2.35B 2.58
2015-10-31 $5.83B $0.86B 6.82
2015-07-31 $5.61B $0.94B 5.99
2015-04-30 $5.83B $0.88B 6.61
2015-01-31 $5.71B $0.90B 6.38
2014-10-31 $5.34B $0.93B 5.72
2014-07-31 $5.38B $0.87B 6.19
2014-04-30 $5.27B $0.90B 5.87
2014-01-31 $5.63B $0.95B 5.95
2013-10-31 $4.05B $0.99B 4.11
2013-07-31 $3.92B $0.94B 4.19
2013-04-30 $4.61B $0.93B 4.98
2013-01-31 $4.78B $0.98B 4.89
2012-10-31 $4.43B $0.99B 4.46
2012-07-31 $4.21B $1.02B 4.12
2012-04-30 $4.03B $0.95B 4.26
2012-01-31 $3.91B $0.93B 4.20
2011-10-31 $3.50B $0.89B 3.95
2011-07-31 $3.32B $0.96B 3.46
2011-04-30 $3.50B $0.98B 3.56
2011-01-31 $3.23B $0.94B 3.42
2010-10-31 $2.81B $0.82B 3.44
2010-07-31 $2.66B $0.82B 3.24
2010-04-30 $2.73B $0.77B 3.56
2010-01-31 $2.48B $0.78B 3.16
2009-10-31 $2.36B $0.89B 2.65
2009-07-31 $2.17B $0.89B 2.43
2009-04-30 $2.02B $0.70B 2.88
2009-01-31 $2.17B $0.78B 2.78
2008-10-31 $2.48B $1.00B 2.47
2008-07-31 $2.81B $1.14B 2.48
2008-04-30 $2.75B $0.88B 3.14
2008-01-31 $2.89B $0.97B 2.99
2007-10-31 $2.76B $0.86B 3.22
2007-07-31 $2.40B $0.68B 3.52
2007-04-30 $2.15B $0.62B 3.45
2007-01-31 $2.03B $0.64B 3.18
2006-10-31 $2.03B $0.66B 3.08
2006-07-31 $1.73B $0.51B 3.42
2006-04-30 $1.72B $0.53B 3.22
2006-01-31 $1.55B $0.44B 3.53
2005-10-31 $1.45B $0.43B 3.39
2005-07-31 $1.40B $0.43B 3.30
2005-04-30 $1.32B $0.38B 3.51
2005-01-31 $1.31B $0.42B 3.10
Sector Industry Market Cap Revenue
Computer and Technology Semiconductor - General $121.180B $9.714B
NVIDIA Corporation is the worldwide leader in graphics processors and media communications devices. The NVIDIA? Tesla? accelerated computing platform gives modern data centers the power to accelerate both artificial intelligence and high-performance computing workloads. NVIDIA? DGX? Systems are built on the new, revolutionary NVIDIA Volta? GPU platform. Powered by NVIDIA? Tesla? GPUs and NVIDIA NVLink?, the HGX reference architecture standardizes the design of data centers accelerating AI in the cloud-from autonomous driving and personalized healthcare to superhuman voice recognition. NVIDIA GPU Cloud (NGC) is a GPU-accelerated platform that runs everywhere. Data scientists and researchers can now rapidly build, train, and deploy neural network models to address some of the most complicated AI challenges. Their researchers operate as a think tank, accelerating advances in product technologies, including AI innovations like facial animations and light transport.
Stock Name Country Market Cap PE Ratio
Intel (INTC) United States $221.705B 10.80
Texas Instruments (TXN) United States $90.752B 18.00
STMicroelectronics (STM) Switzerland $12.552B 10.07
Amtech Systems (ASYS) United States $0.075B 3.85